createdAt,value
2023-02-08T00:00:02.740Z,-8.18
2023-02-08T00:02:29.342Z,-8.22
2023-02-08T00:04:55.920Z,-8.23
2023-02-08T00:07:22.521Z,-8.22
2023-02-08T00:09:49.384Z,-8.18
2023-02-08T00:12:16.941Z,-8.15
2023-02-08T00:14:43.528Z,-8.07
2023-02-08T00:17:10.124Z,-7.99
2023-02-08T00:19:36.709Z,-7.90
2023-02-08T00:22:03.296Z,-7.80
2023-02-08T00:24:29.882Z,-7.71
2023-02-08T00:26:56.488Z,-7.61
2023-02-08T00:29:23.082Z,-7.55
2023-02-08T00:31:49.737Z,-7.47
2023-02-08T00:34:16.330Z,-7.38
2023-02-08T00:36:42.875Z,-7.35
2023-02-08T00:39:09.520Z,-7.31
2023-02-08T00:41:36.104Z,-7.25
2023-02-08T00:44:02.686Z,-7.18
2023-02-08T00:46:29.351Z,-7.10
2023-02-08T00:48:55.890Z,-7.01
2023-02-08T00:51:22.536Z,-6.91
2023-02-08T00:53:49.090Z,-6.81
2023-02-08T00:56:16.150Z,-6.72
2023-02-08T00:58:43.100Z,-6.64
2023-02-08T01:01:10.047Z,-6.58
2023-02-08T01:03:39.443Z,-6.54
2023-02-08T01:06:13.672Z,-6.51
2023-02-08T01:08:40.362Z,-6.54
2023-02-08T01:11:16.306Z,-6.51
2023-02-08T01:13:42.953Z,-6.47
2023-02-08T01:16:11.156Z,-6.42
2023-02-08T01:18:38.540Z,-6.38
2023-02-08T01:21:13.988Z,-6.35
2023-02-08T01:23:41.552Z,-6.32
2023-02-08T01:26:10.184Z,-6.30
2023-02-08T01:28:37.271Z,-6.26
2023-02-08T01:31:08.950Z,-6.24
2023-02-08T01:33:36.302Z,-6.20
2023-02-08T01:36:03.498Z,-6.17
2023-02-08T01:38:30.907Z,-6.15
2023-02-08T01:40:57.496Z,-6.10
2023-02-08T01:43:29.855Z,-6.05
2023-02-08T01:45:56.447Z,-5.97
2023-02-08T01:48:37.507Z,-5.92
2023-02-08T01:51:13.481Z,-5.86
2023-02-08T01:53:41.457Z,-5.82
2023-02-08T01:56:13.124Z,-5.75
2023-02-08T01:58:51.464Z,-5.69
2023-02-08T02:01:18.299Z,-5.64
2023-02-08T02:03:45.172Z,-5.57
2023-02-08T02:06:17.067Z,-5.54
2023-02-08T02:09:05.488Z,-5.48
2023-02-08T02:11:32.315Z,-5.40
2023-02-08T02:13:59.107Z,-5.34
2023-02-08T02:16:25.691Z,-5.31
2023-02-08T02:18:52.554Z,-5.28
2023-02-08T02:21:22.161Z,-5.24
2023-02-08T02:24:17.562Z,-5.21
2023-02-08T02:27:05.587Z,-5.18
2023-02-08T02:29:32.133Z,-5.15
2023-02-08T02:32:22.146Z,-5.10
2023-02-08T02:34:58.833Z,-5.05
2023-02-08T02:37:49.255Z,-5.00
2023-02-08T02:40:36.992Z,-4.92
2023-02-08T02:43:42.881Z,-4.86
2023-02-08T02:46:27.180Z,-4.79
2023-02-08T02:49:02.564Z,-4.69
2023-02-08T02:51:33.925Z,-4.54
2023-02-08T02:54:07.152Z,-4.42
2023-02-08T02:56:43.208Z,-4.34
2023-02-08T02:59:11.629Z,-4.22
2023-02-08T03:01:39.490Z,-4.11
2023-02-08T03:04:33.675Z,-3.99
2023-02-08T03:07:14.585Z,-3.88
2023-02-08T03:09:50.443Z,-3.78
2023-02-08T03:12:49.017Z,-3.64
2023-02-08T03:15:30.390Z,-3.54
2023-02-08T03:18:12.161Z,-3.48
2023-02-08T03:20:43.160Z,-3.40
2023-02-08T03:23:19.672Z,-3.33
2023-02-08T03:26:37.148Z,-3.27
2023-02-08T03:29:14.073Z,-3.19
2023-02-08T03:32:06.728Z,-3.13
2023-02-08T03:35:15.400Z,-3.04
2023-02-08T03:38:05.408Z,-3.01
2023-02-08T03:40:35.173Z,-2.98
2023-02-08T03:43:09.094Z,-2.93
2023-02-08T03:45:52.641Z,-2.87
2023-02-08T03:48:21.884Z,-2.83
2023-02-08T03:50:52.726Z,-2.76
2023-02-08T03:53:22.616Z,-2.70
2023-02-08T03:55:56.627Z,-2.65
2023-02-08T03:58:32.456Z,-2.60
2023-02-08T04:01:05.975Z,-2.57
2023-02-08T04:03:34.777Z,-2.55
2023-02-08T04:06:01.560Z,-2.47
2023-02-08T04:08:28.148Z,-2.43
2023-02-08T04:10:54.784Z,-2.41
2023-02-08T04:13:21.481Z,-2.36
2023-02-08T04:15:48.117Z,-2.35
2023-02-08T04:18:14.728Z,-2.31
2023-02-08T04:20:41.585Z,-2.28
2023-02-08T04:23:08.316Z,-2.23
2023-02-08T04:25:34.834Z,-2.23
2023-02-08T04:28:01.424Z,-2.22
2023-02-08T04:30:28.058Z,-2.19
2023-02-08T04:32:54.637Z,-2.16
2023-02-08T04:35:21.290Z,-2.14
2023-02-08T04:37:47.907Z,-2.11
2023-02-08T04:40:14.517Z,-2.09
2023-02-08T04:42:41.121Z,-2.09
2023-02-08T04:45:08.221Z,-2.07
2023-02-08T04:47:34.752Z,-2.07
2023-02-08T04:50:01.584Z,-2.06
2023-02-08T04:52:28.242Z,-2.05
2023-02-08T04:54:54.813Z,-2.02
2023-02-08T04:57:21.397Z,-2.04
2023-02-08T04:59:47.982Z,-2.06
2023-02-08T05:02:14.530Z,-2.08
2023-02-08T05:04:41.172Z,-2.08
2023-02-08T05:07:07.755Z,-2.06
2023-02-08T05:09:34.347Z,-2.06
2023-02-08T05:12:00.903Z,-2.04
2023-02-08T05:14:27.496Z,-2.05
2023-02-08T05:16:54.058Z,-2.07
2023-02-08T05:19:20.612Z,-2.08
2023-02-08T05:21:47.201Z,-2.10
2023-02-08T05:24:13.898Z,-2.10
2023-02-08T05:26:41.564Z,-2.09
2023-02-08T05:29:08.238Z,-2.09
2023-02-08T05:31:34.951Z,-2.11
2023-02-08T05:34:01.786Z,-2.15
2023-02-08T05:36:28.564Z,-2.18
2023-02-08T05:38:55.097Z,-2.21
2023-02-08T05:41:21.842Z,-2.25
2023-02-08T05:43:48.461Z,-2.30
2023-02-08T05:46:15.155Z,-2.36
2023-02-08T05:48:41.779Z,-2.41
2023-02-08T05:51:08.840Z,-2.45
2023-02-08T05:53:35.418Z,-2.48
2023-02-08T05:56:01.951Z,-2.49
2023-02-08T05:58:28.903Z,-2.48
2023-02-08T06:00:55.474Z,-2.51
2023-02-08T06:03:22.600Z,-2.50
2023-02-08T06:05:49.236Z,-2.53
2023-02-08T06:08:15.856Z,-2.57
2023-02-08T06:10:43.302Z,-2.62
2023-02-08T06:13:09.881Z,-2.65
2023-02-08T06:15:36.414Z,-2.72
2023-02-08T06:18:03.261Z,-2.78
2023-02-08T06:20:29.822Z,-2.82
2023-02-08T06:22:56.466Z,-2.84
2023-02-08T06:25:23.018Z,-2.80
2023-02-08T06:27:49.626Z,-2.80
2023-02-08T06:30:16.873Z,-2.86
2023-02-08T06:32:43.518Z,-2.86
2023-02-08T06:35:10.277Z,-2.85
2023-02-08T06:37:37.314Z,-2.85
2023-02-08T06:40:05.175Z,-2.82
2023-02-08T06:42:31.871Z,-2.76
2023-02-08T06:44:59.060Z,-2.75
2023-02-08T06:47:27.143Z,-2.69
2023-02-08T06:49:53.947Z,-2.63
2023-02-08T06:52:21.948Z,-2.57
2023-02-08T06:54:48.646Z,-2.48
2023-02-08T06:57:15.602Z,-2.36
2023-02-08T06:59:42.622Z,-2.27
2023-02-08T07:02:18.474Z,-2.17
2023-02-08T07:04:45.560Z,-2.07
2023-02-08T07:07:17.042Z,-1.92
2023-02-08T07:09:43.652Z,-1.76
2023-02-08T07:12:10.529Z,-1.61
2023-02-08T07:14:40.044Z,-1.54
2023-02-08T07:17:06.994Z,-1.46
2023-02-08T07:19:33.950Z,-1.33
2023-02-08T07:22:07.243Z,-1.31
2023-02-08T07:24:39.314Z,-1.29
2023-02-08T07:27:07.644Z,-1.27
2023-02-08T07:29:34.767Z,-1.18
2023-02-08T07:32:02.614Z,-1.10
2023-02-08T07:34:30.763Z,-1.01
2023-02-08T07:36:57.354Z,-0.91
2023-02-08T07:39:24.249Z,-0.85
2023-02-08T07:41:50.998Z,-0.74
2023-02-08T07:44:17.801Z,-0.65
2023-02-08T07:46:44.506Z,-0.52
2023-02-08T07:49:11.120Z,-0.43
2023-02-08T07:51:37.857Z,-0.35
2023-02-08T07:54:04.570Z,-0.25
2023-02-08T07:56:31.349Z,-0.16
2023-02-08T07:58:57.903Z,-0.11
2023-02-08T08:01:24.556Z,-0.03
2023-02-08T08:03:52.330Z,0.04
2023-02-08T08:06:20.498Z,0.18
2023-02-08T08:08:47.671Z,0.24
2023-02-08T08:11:15.305Z,0.33
2023-02-08T08:13:42.105Z,0.45
2023-02-08T08:16:09.217Z,0.57
2023-02-08T08:18:36.256Z,0.70
2023-02-08T08:21:03.645Z,0.84
2023-02-08T08:23:33.046Z,0.93
2023-02-08T08:26:00.571Z,1.02
2023-02-08T08:28:27.521Z,1.17
2023-02-08T08:30:54.493Z,1.31
2023-02-08T08:33:21.218Z,1.45
2023-02-08T08:35:47.925Z,1.61
2023-02-08T08:38:14.540Z,1.75
2023-02-08T08:40:41.444Z,1.85
2023-02-08T08:43:08.271Z,1.94
2023-02-08T08:45:36.261Z,2.07
2023-02-08T08:48:06.306Z,2.28
2023-02-08T08:50:32.872Z,2.47
2023-02-08T08:52:59.571Z,2.59
2023-02-08T08:55:27.843Z,2.75
2023-02-08T08:57:55.055Z,2.92
2023-02-08T09:00:21.864Z,3.04
2023-02-08T09:02:48.721Z,3.13
2023-02-08T09:05:15.310Z,3.34
2023-02-08T09:07:41.915Z,3.58
2023-02-08T09:10:08.627Z,3.82
2023-02-08T09:12:35.319Z,3.86
2023-02-08T09:15:01.924Z,4.12
2023-02-08T09:17:28.607Z,4.43
2023-02-08T09:19:55.192Z,4.83
2023-02-08T09:22:21.769Z,5.23
2023-02-08T09:24:48.428Z,5.59
2023-02-08T09:27:15.014Z,5.96
2023-02-08T09:29:41.547Z,6.41
2023-02-08T09:32:10.195Z,6.89
2023-02-08T09:34:39.826Z,7.22
2023-02-08T09:37:07.056Z,7.52
2023-02-08T09:39:34.847Z,7.95
2023-02-08T09:42:20.881Z,8.44
2023-02-08T09:44:53.570Z,8.79
2023-02-08T09:47:32.219Z,9.19
2023-02-08T09:50:34.282Z,9.70
2023-02-08T09:53:20.424Z,10.14
2023-02-08T09:55:51.771Z,10.47
2023-02-08T09:58:34.626Z,10.28
2023-02-08T10:01:04.093Z,10.19
2023-02-08T10:03:45.131Z,10.64
2023-02-08T10:06:17.504Z,10.90
2023-02-08T10:08:46.163Z,11.44
2023-02-08T10:11:27.858Z,12.01
2023-02-08T10:14:09.657Z,12.05
2023-02-08T10:17:10.180Z,11.73
2023-02-08T10:19:39.462Z,11.71
2023-02-08T10:22:38.973Z,11.93
2023-02-08T10:25:27.996Z,11.85
2023-02-08T10:28:16.278Z,12.06
2023-02-08T10:31:10.431Z,12.47
2023-02-08T10:33:58.532Z,13.03
2023-02-08T10:36:28.726Z,13.68
2023-02-08T10:38:56.261Z,13.71
2023-02-08T10:41:32.165Z,13.27
2023-02-08T10:44:13.011Z,12.97
2023-02-08T10:46:51.213Z,13.19
2023-02-08T10:49:31.958Z,13.62
2023-02-08T10:51:58.611Z,14.08
2023-02-08T10:54:25.213Z,13.88
2023-02-08T10:56:58.343Z,13.54
2023-02-08T10:59:35.528Z,13.46
2023-02-08T11:02:02.222Z,14.05
2023-02-08T11:04:29.089Z,14.19
2023-02-08T11:06:55.660Z,14.15
2023-02-08T11:09:31.299Z,13.92
2023-02-08T11:12:00.276Z,14.18
2023-02-08T11:14:46.860Z,14.48
2023-02-08T11:17:31.480Z,14.27
2023-02-08T11:19:59.537Z,14.38
2023-02-08T11:22:31.227Z,14.10
2023-02-08T11:25:07.607Z,13.83
2023-02-08T11:27:36.695Z,13.90
2023-02-08T11:30:24.268Z,14.44
2023-02-08T11:33:18.617Z,14.51
2023-02-08T11:35:54.951Z,15.07
2023-02-08T11:38:28.251Z,15.38
2023-02-08T11:40:58.647Z,15.38
2023-02-08T11:43:34.956Z,15.44
2023-02-08T11:46:04.963Z,15.02
2023-02-08T11:48:42.869Z,15.78
2023-02-08T11:51:12.737Z,16.39
2023-02-08T11:53:40.996Z,16.88
2023-02-08T11:56:18.548Z,17.11
2023-02-08T11:59:18.738Z,17.20
2023-02-08T12:01:45.736Z,16.73
2023-02-08T12:04:15.017Z,17.18
2023-02-08T12:06:53.888Z,16.77
2023-02-08T12:09:53.315Z,16.31
2023-02-08T12:12:35.908Z,16.35
2023-02-08T12:15:48.123Z,16.41
2023-02-08T12:18:22.746Z,16.55
2023-02-08T12:20:59.994Z,16.54
2023-02-08T12:23:53.419Z,16.69
2023-02-08T12:26:28.946Z,16.76
2023-02-08T12:29:47.304Z,16.72
2023-02-08T12:32:36.311Z,16.99
2023-02-08T12:35:50.964Z,16.53
2023-02-08T12:38:59.310Z,16.61
2023-02-08T12:41:44.477Z,16.86
2023-02-08T12:44:38.470Z,16.66
2023-02-08T12:47:39.074Z,16.88
2023-02-08T12:50:31.833Z,17.42
2023-02-08T12:53:05.876Z,17.13
2023-02-08T12:55:38.846Z,16.77
2023-02-08T12:58:32.426Z,16.77
2023-02-08T13:01:27.621Z,16.07
2023-02-08T13:04:13.612Z,15.42
2023-02-08T13:06:43.085Z,15.66
2023-02-08T13:09:46.711Z,15.75
2023-02-08T13:12:22.175Z,15.57
2023-02-08T13:15:28.399Z,15.93
2023-02-08T13:18:16.748Z,16.25
2023-02-08T13:20:46.154Z,15.90
2023-02-08T13:23:26.513Z,15.81
2023-02-08T13:26:00.744Z,16.44
2023-02-08T13:28:28.362Z,15.96
2023-02-08T13:31:08.609Z,16.51
2023-02-08T13:33:44.444Z,16.09
2023-02-08T13:36:25.804Z,16.46
2023-02-08T13:38:53.705Z,15.99
2023-02-08T13:41:24.696Z,16.02
2023-02-08T13:44:01.561Z,16.18
2023-02-08T13:46:35.404Z,15.39
2023-02-08T13:49:01.998Z,15.19
2023-02-08T13:51:31.536Z,14.06
2023-02-08T13:53:58.101Z,13.49
2023-02-08T13:56:45.168Z,12.86
2023-02-08T13:59:24.671Z,12.31
2023-02-08T14:02:12.908Z,11.54
2023-02-08T14:04:43.134Z,11.07
2023-02-08T14:07:15.838Z,10.91
2023-02-08T14:10:30.573Z,10.01
2023-02-08T14:13:03.923Z,10.25
2023-02-08T14:15:33.866Z,10.81
2023-02-08T14:18:01.873Z,11.06
2023-02-08T14:20:33.797Z,11.48
2023-02-08T14:23:21.645Z,11.29
2023-02-08T14:25:50.996Z,11.54
2023-02-08T14:28:32.128Z,11.73
2023-02-08T14:31:01.206Z,11.53
2023-02-08T14:33:38.706Z,11.02
2023-02-08T14:36:08.813Z,10.37
2023-02-08T14:38:52.406Z,10.66
2023-02-08T14:41:54.485Z,11.24
2023-02-08T14:44:39.479Z,11.57
2023-02-08T14:47:36.943Z,11.77
2023-02-08T14:50:26.141Z,11.91
2023-02-08T14:52:58.904Z,11.71
2023-02-08T14:55:30.395Z,12.08
2023-02-08T14:58:00.688Z,11.58
2023-02-08T15:00:34.194Z,11.11
2023-02-08T15:03:02.093Z,10.37
2023-02-08T15:05:31.724Z,10.04
2023-02-08T15:08:00.260Z,9.94
2023-02-08T15:10:28.634Z,9.13
2023-02-08T15:13:02.480Z,8.48
2023-02-08T15:15:36.637Z,8.07
2023-02-08T15:18:06.207Z,8.05
2023-02-08T15:20:35.923Z,7.47
2023-02-08T15:23:19.132Z,7.16
2023-02-08T15:25:56.043Z,6.88
2023-02-08T15:28:25.250Z,6.64
2023-02-08T15:31:09.263Z,6.25
2023-02-08T15:33:39.337Z,6.22
2023-02-08T15:36:08.912Z,5.75
2023-02-08T15:38:38.809Z,5.50
2023-02-08T15:41:08.469Z,5.38
2023-02-08T15:43:37.297Z,4.85
2023-02-08T15:46:06.978Z,4.84
2023-02-08T15:48:35.938Z,4.57
2023-02-08T15:51:03.072Z,4.47
2023-02-08T15:53:30.956Z,4.38
2023-02-08T15:56:03.898Z,4.05
2023-02-08T15:58:35.678Z,3.80
2023-02-08T16:01:05.373Z,3.74
2023-02-08T16:03:33.352Z,3.50
2023-02-08T16:06:06.693Z,3.35
2023-02-08T16:08:39.080Z,3.27
2023-02-08T16:11:23.135Z,3.04
2023-02-08T16:13:53.151Z,2.92
2023-02-08T16:16:26.648Z,2.81
2023-02-08T16:19:01.379Z,2.80
2023-02-08T16:21:35.393Z,2.71
2023-02-08T16:24:28.330Z,2.52
2023-02-08T16:26:57.067Z,2.45
2023-02-08T16:29:46.287Z,2.37
2023-02-08T16:32:28.463Z,2.22
2023-02-08T16:34:55.514Z,2.11
2023-02-08T16:37:33.789Z,2.05
2023-02-08T16:40:20.539Z,1.89
2023-02-08T16:42:47.499Z,1.76
2023-02-08T16:45:17.479Z,1.64
2023-02-08T16:47:50.064Z,1.54
2023-02-08T16:50:23.166Z,1.36
2023-02-08T16:52:55.212Z,1.38
2023-02-08T16:55:27.833Z,1.17
2023-02-08T16:57:57.202Z,1.01
2023-02-08T17:00:30.026Z,1.00
2023-02-08T17:02:56.747Z,0.95
2023-02-08T17:05:27.125Z,0.84
2023-02-08T17:07:53.796Z,0.76
2023-02-08T17:10:25.711Z,0.72
2023-02-08T17:13:03.809Z,0.69
2023-02-08T17:15:40.459Z,0.69
2023-02-08T17:18:07.182Z,0.62
2023-02-08T17:20:35.698Z,0.57
2023-02-08T17:23:04.454Z,0.52
2023-02-08T17:25:32.623Z,0.51
2023-02-08T17:28:05.171Z,0.52
2023-02-08T17:30:37.793Z,0.42
2023-02-08T17:33:06.792Z,0.40
2023-02-08T17:35:35.365Z,0.31
2023-02-08T17:38:02.117Z,0.22
2023-02-08T17:40:32.661Z,0.16
2023-02-08T17:43:00.217Z,0.12
2023-02-08T17:45:28.198Z,0.16
2023-02-08T17:47:56.307Z,0.10
2023-02-08T17:50:23.667Z,0.08
2023-02-08T17:52:50.368Z,0.02
2023-02-08T17:55:18.587Z,0.02
2023-02-08T17:57:45.701Z,-0.08
2023-02-08T18:00:18.606Z,-0.15
2023-02-08T18:02:47.452Z,-0.19
2023-02-08T18:05:18.669Z,-0.25
2023-02-08T18:07:45.244Z,-0.30
2023-02-08T18:10:15.675Z,-0.35
2023-02-08T18:12:42.993Z,-0.33
2023-02-08T18:15:16.114Z,-0.38
2023-02-08T18:17:44.029Z,-0.46
2023-02-08T18:20:14.252Z,-0.49
2023-02-08T18:22:42.997Z,-0.51
2023-02-08T18:25:11.032Z,-0.57
2023-02-08T18:27:37.913Z,-0.63
2023-02-08T18:30:04.983Z,-0.67
2023-02-08T18:32:31.602Z,-0.71
2023-02-08T18:34:58.644Z,-0.77
2023-02-08T18:37:25.660Z,-0.84
2023-02-08T18:39:52.379Z,-1.00
2023-02-08T18:42:19.174Z,-1.06
2023-02-08T18:44:45.916Z,-1.10
2023-02-08T18:47:12.683Z,-1.13
2023-02-08T18:49:42.167Z,-1.13
2023-02-08T18:52:11.422Z,-1.15
2023-02-08T18:54:39.736Z,-1.13
2023-02-08T18:57:09.578Z,-1.20
2023-02-08T18:59:37.275Z,-1.26
2023-02-08T19:02:07.085Z,-1.26
2023-02-08T19:04:40.435Z,-1.28
2023-02-08T19:07:07.843Z,-1.30
2023-02-08T19:09:36.165Z,-1.30
2023-02-08T19:12:03.166Z,-1.39
2023-02-08T19:14:30.244Z,-1.44
2023-02-08T19:16:57.067Z,-1.51
2023-02-08T19:19:23.610Z,-1.58
2023-02-08T19:21:50.203Z,-1.55
2023-02-08T19:24:16.782Z,-1.57
2023-02-08T19:26:43.420Z,-1.60
2023-02-08T19:29:15.665Z,-1.63
2023-02-08T19:31:42.984Z,-1.68
2023-02-08T19:34:10.730Z,-1.72
2023-02-08T19:36:41.928Z,-1.76
2023-02-08T19:39:08.523Z,-1.81
2023-02-08T19:41:37.990Z,-1.84
2023-02-08T19:44:07.307Z,-1.93
2023-02-08T19:46:38.714Z,-1.99
2023-02-08T19:49:06.779Z,-2.05
2023-02-08T19:51:36.925Z,-2.10
2023-02-08T19:54:09.256Z,-2.18
2023-02-08T19:56:36.329Z,-2.33
2023-02-08T19:59:06.278Z,-2.44
2023-02-08T20:01:34.402Z,-2.49
2023-02-08T20:04:01.971Z,-2.58
2023-02-08T20:06:34.779Z,-2.76
2023-02-08T20:09:01.787Z,-2.79
2023-02-08T20:11:31.083Z,-2.83
2023-02-08T20:13:59.676Z,-2.89
2023-02-08T20:16:29.362Z,-2.97
2023-02-08T20:18:59.584Z,-3.00
2023-02-08T20:21:27.032Z,-3.06
2023-02-08T20:23:53.872Z,-3.12
2023-02-08T20:26:24.382Z,-3.14
2023-02-08T20:28:53.888Z,-3.17
2023-02-08T20:31:24.166Z,-3.22
2023-02-08T20:33:51.829Z,-3.26
2023-02-08T20:36:23.982Z,-3.38
2023-02-08T20:38:53.296Z,-3.51
2023-02-08T20:41:21.693Z,-3.62
2023-02-08T20:43:48.777Z,-3.65
2023-02-08T20:46:19.377Z,-3.70
2023-02-08T20:48:46.125Z,-3.80
2023-02-08T20:51:15.347Z,-3.83
2023-02-08T20:53:42.909Z,-3.84
2023-02-08T20:56:12.564Z,-3.84
2023-02-08T20:58:39.549Z,-3.91
2023-02-08T21:01:14.766Z,-3.94
2023-02-08T21:03:41.716Z,-4.02
2023-02-08T21:06:23.312Z,-4.06
2023-02-08T21:08:55.332Z,-4.10
2023-02-08T21:11:25.083Z,-4.12
2023-02-08T21:13:51.865Z,-4.23
2023-02-08T21:16:18.910Z,-4.22
2023-02-08T21:18:45.874Z,-4.34
2023-02-08T21:21:13.288Z,-4.33
2023-02-08T21:23:39.857Z,-4.36
2023-02-08T21:26:08.524Z,-4.41
2023-02-08T21:28:35.706Z,-4.44
2023-02-08T21:31:05.970Z,-4.53
2023-02-08T21:33:32.929Z,-4.69
2023-02-08T21:36:10.319Z,-4.72
2023-02-08T21:38:36.966Z,-4.76
2023-02-08T21:41:12.964Z,-4.74
2023-02-08T21:43:39.811Z,-4.77
2023-02-08T21:46:08.216Z,-4.76
2023-02-08T21:48:55.848Z,-4.77
2023-02-08T21:51:42.313Z,-4.80
2023-02-08T21:54:31.379Z,-4.86
2023-02-08T21:56:59.592Z,-4.94
2023-02-08T21:59:26.728Z,-4.98
2023-02-08T22:01:53.296Z,-4.97
2023-02-08T22:04:19.876Z,-5.00
2023-02-08T22:06:47.112Z,-5.13
2023-02-08T22:09:13.692Z,-5.21
2023-02-08T22:11:42.651Z,-5.21
2023-02-08T22:14:13.546Z,-5.21
2023-02-08T22:16:40.935Z,-5.28
2023-02-08T22:19:07.864Z,-5.32
2023-02-08T22:21:34.807Z,-5.40
2023-02-08T22:24:01.574Z,-5.48
2023-02-08T22:26:28.429Z,-5.56
2023-02-08T22:28:55.061Z,-5.56
2023-02-08T22:31:21.746Z,-5.59
2023-02-08T22:33:48.492Z,-5.61
2023-02-08T22:36:15.041Z,-5.64
2023-02-08T22:38:41.692Z,-5.69
2023-02-08T22:41:16.309Z,-5.71
2023-02-08T22:43:43.162Z,-5.85
2023-02-08T22:46:09.927Z,-5.90
2023-02-08T22:48:36.991Z,-5.91
2023-02-08T22:51:08.521Z,-5.99
2023-02-08T22:53:35.369Z,-5.96
2023-02-08T22:56:02.374Z,-5.93
2023-02-08T22:58:29.071Z,-5.96
2023-02-08T23:00:56.366Z,-6.02
2023-02-08T23:03:23.675Z,-6.07
2023-02-08T23:05:51.749Z,-6.12
2023-02-08T23:08:21.305Z,-6.19
2023-02-08T23:10:48.134Z,-6.20
2023-02-08T23:13:14.962Z,-6.23
2023-02-08T23:15:43.841Z,-6.30
2023-02-08T23:18:10.493Z,-6.34
2023-02-08T23:20:39.220Z,-6.34
2023-02-08T23:23:05.796Z,-6.35
2023-02-08T23:25:32.381Z,-6.48
2023-02-08T23:27:59.141Z,-6.52
2023-02-08T23:30:25.780Z,-6.61
2023-02-08T23:32:52.332Z,-6.65
2023-02-08T23:35:18.960Z,-6.66
2023-02-08T23:37:45.514Z,-6.65
2023-02-08T23:40:12.417Z,-6.65
2023-02-08T23:42:39.091Z,-6.64
2023-02-08T23:45:06.229Z,-6.59
2023-02-08T23:47:33.015Z,-6.53
2023-02-08T23:49:59.637Z,-6.48
2023-02-08T23:52:26.368Z,-6.46
2023-02-08T23:54:52.978Z,-6.51
2023-02-08T23:57:19.551Z,-6.57
2023-02-08T23:59:46.220Z,-6.64
